createdAt,value
2022-11-06T00:01:33.506Z,9.77
2022-11-06T00:04:00.023Z,8.75
2022-11-06T00:06:45.074Z,7.80
2022-11-06T00:09:13.322Z,7.27
2022-11-06T00:11:40.874Z,9.10
2022-11-06T00:14:07.646Z,9.20
2022-11-06T00:16:34.467Z,9.80
2022-11-06T00:19:01.778Z,7.35
2022-11-06T00:21:30.303Z,7.03
2022-11-06T00:23:59.146Z,11.18
2022-11-06T00:26:27.918Z,7.63
2022-11-06T00:28:57.269Z,7.20
2022-11-06T00:31:29.149Z,6.72
2022-11-06T00:33:58.581Z,7.27
2022-11-06T00:36:26.907Z,7.75
2022-11-06T00:38:55.278Z,5.22
2022-11-06T00:41:22.787Z,7.50
2022-11-06T00:43:50.914Z,10.48
2022-11-06T00:46:18.068Z,6.90
2022-11-06T00:48:44.521Z,7.90
2022-11-06T00:51:13.846Z,6.15
2022-11-06T00:53:40.821Z,6.00
2022-11-06T00:56:15.917Z,9.00
2022-11-06T00:58:43.160Z,5.83
2022-11-06T01:01:13.564Z,5.57
2022-11-06T01:03:41.456Z,7.30
2022-11-06T01:06:11.971Z,11.55
2022-11-06T01:08:39.187Z,6.40
2022-11-06T01:11:11.844Z,6.13
2022-11-06T01:13:38.891Z,8.50
2022-11-06T01:16:08.245Z,6.05
2022-11-06T01:18:36.450Z,7.82
2022-11-06T01:21:08.260Z,7.07
2022-11-06T01:23:35.073Z,7.03
2022-11-06T01:26:04.053Z,6.30
2022-11-06T01:28:30.681Z,7.72
2022-11-06T01:30:57.284Z,6.20
2022-11-06T01:33:23.859Z,8.60
2022-11-06T01:35:51.819Z,9.63
2022-11-06T01:38:18.447Z,4.38
2022-11-06T01:40:47.131Z,7.47
2022-11-06T01:43:25.282Z,5.65
2022-11-06T01:45:53.981Z,5.88
2022-11-06T01:48:25.723Z,5.63
2022-11-06T01:50:55.457Z,7.20
2022-11-06T01:53:23.351Z,6.28
2022-11-06T01:55:53.853Z,3.85
2022-11-06T01:58:22.524Z,9.40
2022-11-06T02:00:49.983Z,5.50
2022-11-06T02:03:16.911Z,7.80
2022-11-06T02:05:43.310Z,4.45
2022-11-06T02:08:13.225Z,6.82
2022-11-06T02:10:40.957Z,4.88
2022-11-06T02:13:15.498Z,5.23
2022-11-06T02:16:12.329Z,4.78
2022-11-06T02:18:44.894Z,5.30
2022-11-06T02:21:49.618Z,8.38
2022-11-06T02:24:46.642Z,5.95
2022-11-06T02:27:17.239Z,8.73
2022-11-06T02:30:06.822Z,6.03
2022-11-06T02:32:57.950Z,4.07
2022-11-06T02:35:30.537Z,3.97
2022-11-06T02:38:03.946Z,4.28
2022-11-06T02:40:33.867Z,7.53
2022-11-06T02:43:04.430Z,4.20
2022-11-06T02:45:32.405Z,6.45
2022-11-06T02:48:01.120Z,7.43
2022-11-06T02:50:33.449Z,4.93
2022-11-06T02:53:06.349Z,4.07
2022-11-06T02:55:40.626Z,4.93
2022-11-06T02:58:14.034Z,6.45
2022-11-06T03:00:44.792Z,3.72
2022-11-06T03:03:28.148Z,6.00
2022-11-06T03:06:12.368Z,5.63
2022-11-06T03:08:44.443Z,7.72
2022-11-06T03:11:25.906Z,7.30
2022-11-06T03:14:24.196Z,6.93
2022-11-06T03:17:09.153Z,7.07
2022-11-06T03:19:48.810Z,6.27
2022-11-06T03:22:28.868Z,7.03
2022-11-06T03:25:11.844Z,4.38
2022-11-06T03:27:45.914Z,3.95
2022-11-06T03:30:16.748Z,5.82
2022-11-06T03:32:53.411Z,6.70
2022-11-06T03:35:26.501Z,5.20
2022-11-06T03:37:59.262Z,5.47
2022-11-06T03:40:28.850Z,6.10
2022-11-06T03:43:00.657Z,6.22
2022-11-06T03:45:29.638Z,4.73
2022-11-06T03:48:02.770Z,5.57
2022-11-06T03:50:36.778Z,4.55
2022-11-06T03:53:12.114Z,4.97
2022-11-06T03:55:45.215Z,4.88
2022-11-06T03:58:17.246Z,6.53
2022-11-06T04:00:44.930Z,5.82
2022-11-06T04:03:22.295Z,9.60
2022-11-06T04:05:53.372Z,5.72
2022-11-06T04:08:40.545Z,4.05
2022-11-06T04:11:29.558Z,9.93
2022-11-06T04:13:57.753Z,3.88
2022-11-06T04:16:27.322Z,4.25
2022-11-06T04:18:53.695Z,6.28
2022-11-06T04:21:32.101Z,4.15
2022-11-06T04:24:45.871Z,3.37
2022-11-06T04:27:45.994Z,4.03
2022-11-06T04:30:15.728Z,3.97
2022-11-06T04:33:04.282Z,5.32
2022-11-06T04:35:54.215Z,4.50
2022-11-06T04:38:34.926Z,3.13
2022-11-06T04:41:19.687Z,5.85
2022-11-06T04:43:51.914Z,5.18
2022-11-06T04:46:33.087Z,6.05
2022-11-06T04:49:02.761Z,3.95
2022-11-06T04:51:36.055Z,4.57
2022-11-06T04:54:02.835Z,5.32
2022-11-06T04:56:34.884Z,3.65
2022-11-06T04:59:03.058Z,3.92
2022-11-06T05:01:29.427Z,6.45
2022-11-06T05:03:55.848Z,7.17
2022-11-06T05:06:27.025Z,3.95
2022-11-06T05:08:57.607Z,3.67
2022-11-06T05:11:23.979Z,3.13
2022-11-06T05:13:50.421Z,3.20
2022-11-06T05:16:17.858Z,5.77
2022-11-06T05:18:44.225Z,6.22
2022-11-06T05:21:29.609Z,4.82
2022-11-06T05:23:55.966Z,4.63
2022-11-06T05:26:22.566Z,6.50
2022-11-06T05:28:49.314Z,3.57
2022-11-06T05:31:15.827Z,4.20
2022-11-06T05:33:42.188Z,4.65
2022-11-06T05:36:08.865Z,5.68
2022-11-06T05:38:36.160Z,3.63
2022-11-06T05:41:02.559Z,3.37
2022-11-06T05:43:28.952Z,5.22
2022-11-06T05:45:55.435Z,6.68
2022-11-06T05:48:22.001Z,6.65
2022-11-06T05:50:48.494Z,2.30
2022-11-06T05:53:15.749Z,5.80
2022-11-06T05:55:42.175Z,3.15
2022-11-06T05:58:08.516Z,5.03
2022-11-06T06:00:34.894Z,5.53
2022-11-06T06:03:02.557Z,3.58
2022-11-06T06:05:29.033Z,3.83
2022-11-06T06:07:55.512Z,5.47
2022-11-06T06:10:21.901Z,4.13
2022-11-06T06:12:51.598Z,3.97
2022-11-06T06:15:18.280Z,5.65
2022-11-06T06:17:45.495Z,4.23
2022-11-06T06:20:12.564Z,5.10
2022-11-06T06:22:39.075Z,3.33
2022-11-06T06:25:12.172Z,3.05
2022-11-06T06:27:43.860Z,3.78
2022-11-06T06:30:10.959Z,4.77
2022-11-06T06:32:37.496Z,3.80
2022-11-06T06:35:04.253Z,5.55
2022-11-06T06:37:30.685Z,4.70
2022-11-06T06:39:57.032Z,2.80
2022-11-06T06:42:27.378Z,5.47
2022-11-06T06:44:57.785Z,5.60
2022-11-06T06:47:24.150Z,2.80
2022-11-06T06:49:50.471Z,3.78
2022-11-06T06:52:16.887Z,4.97
2022-11-06T06:54:43.229Z,5.97
2022-11-06T06:57:09.943Z,6.15
2022-11-06T06:59:36.540Z,5.30
2022-11-06T07:02:03.430Z,6.20
2022-11-06T07:04:29.879Z,3.75
2022-11-06T07:06:56.230Z,3.90
2022-11-06T07:09:23.916Z,4.05
2022-11-06T07:11:50.275Z,3.33
2022-11-06T07:14:16.605Z,5.80
2022-11-06T07:16:42.981Z,4.82
2022-11-06T07:19:09.330Z,2.77
2022-11-06T07:21:35.732Z,4.05
2022-11-06T07:24:02.181Z,4.07
2022-11-06T07:26:28.515Z,5.65
2022-11-06T07:28:54.875Z,5.97
2022-11-06T07:31:21.218Z,4.27
2022-11-06T07:33:47.608Z,5.28
2022-11-06T07:36:14.400Z,3.35
2022-11-06T07:38:42.147Z,2.72
2022-11-06T07:41:10.903Z,5.20
2022-11-06T07:43:37.687Z,3.17
2022-11-06T07:46:07.317Z,5.63
2022-11-06T07:48:33.837Z,7.20
2022-11-06T07:51:05.402Z,2.80
2022-11-06T07:53:32.228Z,7.13
2022-11-06T07:55:58.990Z,5.70
2022-11-06T07:58:25.699Z,4.78
2022-11-06T08:00:57.168Z,4.40
2022-11-06T08:03:24.898Z,2.95
2022-11-06T08:05:51.673Z,4.97
2022-11-06T08:08:18.442Z,4.33
2022-11-06T08:10:44.802Z,3.35
2022-11-06T08:13:12.122Z,4.45
2022-11-06T08:15:39.264Z,3.42
2022-11-06T08:18:06.766Z,5.15
2022-11-06T08:20:33.114Z,4.77
2022-11-06T08:23:00.634Z,4.78
2022-11-06T08:25:28.341Z,5.05
2022-11-06T08:27:55.963Z,3.28
2022-11-06T08:30:22.658Z,4.30
2022-11-06T08:33:05.065Z,3.17
2022-11-06T08:35:33.831Z,4.97
2022-11-06T08:38:00.454Z,4.63
2022-11-06T08:40:30.938Z,4.25
2022-11-06T08:43:02.660Z,4.55
2022-11-06T08:45:29.530Z,5.20
2022-11-06T08:48:22.995Z,4.05
2022-11-06T08:50:49.347Z,3.80
2022-11-06T08:53:16.243Z,4.75
2022-11-06T08:55:43.174Z,5.63
2022-11-06T08:58:09.784Z,5.03
2022-11-06T09:00:36.646Z,5.53
2022-11-06T09:03:06.325Z,3.95
2022-11-06T09:05:33.115Z,6.35
2022-11-06T09:08:00.255Z,2.85
2022-11-06T09:10:27.694Z,11.00
2022-11-06T09:12:54.317Z,4.07
2022-11-06T09:15:20.784Z,4.97
2022-11-06T09:17:49.520Z,3.38
2022-11-06T09:20:18.864Z,4.00
2022-11-06T09:22:46.717Z,9.40
2022-11-06T09:25:13.506Z,3.83
2022-11-06T09:27:47.812Z,5.40
2022-11-06T09:30:16.144Z,5.75
2022-11-06T09:32:50.897Z,2.40
2022-11-06T09:35:17.855Z,2.43
2022-11-06T09:37:44.799Z,3.85
2022-11-06T09:40:30.574Z,2.90
2022-11-06T09:44:04.761Z,3.88
2022-11-06T09:46:31.991Z,5.90
2022-11-06T09:49:11.505Z,4.73
2022-11-06T09:52:02.687Z,3.92
2022-11-06T09:54:36.107Z,2.67
2022-11-06T09:57:21.106Z,4.13
2022-11-06T09:59:48.740Z,4.05
2022-11-06T10:02:40.173Z,3.70
2022-11-06T10:05:27.219Z,4.75
2022-11-06T10:07:57.059Z,3.92
2022-11-06T10:11:02.027Z,3.33
2022-11-06T10:13:52.055Z,3.30
2022-11-06T10:16:38.645Z,7.70
2022-11-06T10:19:15.685Z,4.07
2022-11-06T10:21:52.174Z,2.78
2022-11-06T10:24:24.034Z,4.45
2022-11-06T10:26:56.927Z,3.22
2022-11-06T10:29:41.765Z,5.17
2022-11-06T10:32:26.180Z,5.82
2022-11-06T10:35:00.458Z,3.00
2022-11-06T10:37:32.861Z,2.40
2022-11-06T10:40:00.153Z,3.35
2022-11-06T10:42:38.251Z,5.13
2022-11-06T10:45:16.937Z,6.72
2022-11-06T10:47:58.453Z,3.05
2022-11-06T10:50:34.058Z,2.67
2022-11-06T10:53:08.902Z,3.60
2022-11-06T10:55:53.238Z,2.77
2022-11-06T10:58:23.163Z,3.60
2022-11-06T11:00:52.543Z,3.08
2022-11-06T11:03:26.948Z,5.55
2022-11-06T11:05:55.141Z,6.53
2022-11-06T11:08:30.568Z,1.90
2022-11-06T11:11:15.865Z,2.17
2022-11-06T11:13:43.474Z,4.68
2022-11-06T11:16:18.891Z,5.25
2022-11-06T11:18:46.543Z,3.75
2022-11-06T11:21:18.850Z,2.13
2022-11-06T11:23:45.959Z,3.15
2022-11-06T11:26:21.472Z,4.95
2022-11-06T11:28:56.667Z,4.03
2022-11-06T11:31:32.657Z,4.28
2022-11-06T11:34:15.576Z,2.50
2022-11-06T11:37:00.346Z,6.57
2022-11-06T11:39:35.843Z,3.10
2022-11-06T11:42:23.114Z,4.45
2022-11-06T11:45:11.758Z,5.13
2022-11-06T11:47:40.470Z,8.67
2022-11-06T11:50:25.414Z,3.88
2022-11-06T11:53:03.213Z,5.03
2022-11-06T11:55:38.159Z,3.47
2022-11-06T11:58:12.396Z,4.88
2022-11-06T12:00:51.376Z,6.30
2022-11-06T12:03:17.934Z,4.97
2022-11-06T12:05:45.143Z,4.63
2022-11-06T12:08:24.216Z,6.43
2022-11-06T12:10:51.079Z,3.47
2022-11-06T12:13:22.511Z,3.63
2022-11-06T12:16:05.529Z,3.20
2022-11-06T12:18:45.265Z,5.88
2022-11-06T12:21:14.445Z,2.60
2022-11-06T12:23:49.402Z,1.83
2022-11-06T12:26:58.613Z,5.27
2022-11-06T12:29:41.058Z,5.40
2022-11-06T12:32:19.823Z,2.33
2022-11-06T12:35:05.143Z,3.92
2022-11-06T12:38:04.310Z,3.97
2022-11-06T12:40:41.950Z,2.57
2022-11-06T12:43:28.425Z,4.25
2022-11-06T12:46:16.178Z,3.28
2022-11-06T12:48:45.559Z,10.73
2022-11-06T12:51:38.955Z,4.85
2022-11-06T12:54:38.813Z,4.63
2022-11-06T12:57:17.046Z,4.47
2022-11-06T13:00:11.293Z,6.50
2022-11-06T13:02:55.883Z,5.10
2022-11-06T13:05:47.407Z,5.20
2022-11-06T13:09:01.881Z,4.63
2022-11-06T13:11:54.030Z,3.45
2022-11-06T13:14:30.543Z,1.50
2022-11-06T13:17:05.942Z,2.80
2022-11-06T13:19:42.560Z,4.90
2022-11-06T13:22:24.216Z,2.93
2022-11-06T13:25:08.980Z,3.05
2022-11-06T13:28:01.628Z,3.08
2022-11-06T13:30:30.220Z,5.03
2022-11-06T13:33:11.886Z,3.20
2022-11-06T13:35:41.691Z,3.43
2022-11-06T13:38:14.310Z,4.72
2022-11-06T13:40:44.095Z,4.45
2022-11-06T13:43:10.373Z,4.28
2022-11-06T13:45:46.130Z,3.55
2022-11-06T13:48:23.155Z,4.10
2022-11-06T13:50:58.634Z,3.50
2022-11-06T13:53:39.231Z,2.85
2022-11-06T13:56:32.789Z,4.00
2022-11-06T13:59:10.402Z,3.85
2022-11-06T14:01:55.274Z,5.33
2022-11-06T14:04:43.252Z,3.05
2022-11-06T14:07:10.663Z,6.50
2022-11-06T14:09:41.454Z,6.38
2022-11-06T14:12:17.218Z,4.28
2022-11-06T14:14:43.764Z,3.00
2022-11-06T14:17:15.854Z,2.22
2022-11-06T14:20:00.493Z,6.35
2022-11-06T14:22:36.381Z,2.63
2022-11-06T14:25:27.892Z,5.15
2022-11-06T14:27:54.337Z,5.17
2022-11-06T14:30:50.146Z,3.97
2022-11-06T14:33:49.400Z,3.10
2022-11-06T14:36:25.013Z,2.53
2022-11-06T14:38:53.031Z,4.97
2022-11-06T14:41:34.886Z,4.37
2022-11-06T14:44:04.910Z,2.97
2022-11-06T14:46:32.705Z,2.47
2022-11-06T14:49:19.238Z,4.00
2022-11-06T14:51:57.970Z,2.35
2022-11-06T14:54:24.816Z,6.93
2022-11-06T14:56:54.989Z,1.95
2022-11-06T14:59:38.930Z,2.78
2022-11-06T15:02:17.208Z,4.07
2022-11-06T15:04:49.541Z,2.67
2022-11-06T15:08:03.333Z,4.57
2022-11-06T15:10:43.015Z,3.50
2022-11-06T15:13:24.116Z,3.53
2022-11-06T15:15:54.943Z,1.80
2022-11-06T15:18:23.687Z,5.85
2022-11-06T15:20:53.998Z,2.90
2022-11-06T15:23:25.301Z,3.92
2022-11-06T15:26:24.107Z,2.45
2022-11-06T15:29:09.557Z,3.20
2022-11-06T15:31:36.378Z,3.97
2022-11-06T15:34:08.442Z,3.67
2022-11-06T15:36:40.714Z,3.42
2022-11-06T15:39:29.202Z,2.45
2022-11-06T15:41:56.546Z,4.25
2022-11-06T15:44:24.796Z,6.15
2022-11-06T15:46:56.522Z,3.77
2022-11-06T15:49:22.995Z,6.10
2022-11-06T15:51:58.319Z,3.90
2022-11-06T15:54:37.032Z,4.53
2022-11-06T15:57:26.358Z,4.45
2022-11-06T16:00:18.598Z,3.10
2022-11-06T16:02:53.146Z,4.10
2022-11-06T16:05:21.539Z,2.60
2022-11-06T16:07:48.819Z,4.55
2022-11-06T16:10:17.607Z,4.30
2022-11-06T16:12:44.648Z,4.90
2022-11-06T16:15:42.959Z,2.85
2022-11-06T16:18:17.950Z,3.60
2022-11-06T16:20:49.463Z,5.78
2022-11-06T16:23:20.651Z,2.67
2022-11-06T16:25:47.282Z,3.20
2022-11-06T16:28:19.939Z,4.32
2022-11-06T16:30:48.732Z,3.30
2022-11-06T16:33:21.303Z,4.72
2022-11-06T16:35:54.984Z,2.67
2022-11-06T16:38:40.833Z,1.60
2022-11-06T16:41:09.491Z,3.53
2022-11-06T16:43:38.091Z,2.63
2022-11-06T16:46:08.019Z,3.83
2022-11-06T16:48:40.264Z,2.10
2022-11-06T16:51:09.587Z,2.03
2022-11-06T16:53:48.869Z,2.30
2022-11-06T16:56:15.402Z,1.67
2022-11-06T16:58:57.423Z,2.22
2022-11-06T17:01:24.467Z,3.13
2022-11-06T17:04:01.015Z,3.23
2022-11-06T17:06:33.113Z,6.35
2022-11-06T17:09:24.276Z,4.68
2022-11-06T17:11:55.179Z,2.25
2022-11-06T17:14:22.940Z,1.95
2022-11-06T17:16:58.016Z,2.13
2022-11-06T17:19:26.239Z,2.03
2022-11-06T17:21:53.141Z,1.65
2022-11-06T17:24:36.980Z,3.08
2022-11-06T17:27:03.964Z,1.77
2022-11-06T17:29:30.353Z,2.43
2022-11-06T17:31:56.737Z,3.83
2022-11-06T17:34:23.092Z,6.00
2022-11-06T17:36:49.460Z,3.55
2022-11-06T17:39:15.829Z,1.88
2022-11-06T17:41:42.390Z,2.47
2022-11-06T17:44:12.343Z,3.38
2022-11-06T17:46:44.639Z,1.67
2022-11-06T17:49:17.088Z,4.30
2022-11-06T17:51:50.717Z,3.63
2022-11-06T17:54:19.028Z,2.43
2022-11-06T17:56:45.634Z,3.35
2022-11-06T17:59:13.327Z,5.03
2022-11-06T18:01:41.543Z,4.88
2022-11-06T18:04:08.700Z,3.67
2022-11-06T18:06:35.591Z,3.33
2022-11-06T18:09:04.482Z,5.53
2022-11-06T18:11:30.951Z,3.08
2022-11-06T18:13:57.516Z,4.45
2022-11-06T18:16:30.259Z,5.68
2022-11-06T18:18:56.886Z,5.67
2022-11-06T18:21:23.698Z,6.15
2022-11-06T18:23:50.711Z,6.30
2022-11-06T18:26:20.416Z,4.68
2022-11-06T18:28:47.510Z,4.85
2022-11-06T18:31:13.981Z,4.07
2022-11-06T18:33:40.369Z,4.88
2022-11-06T18:36:09.010Z,5.13
2022-11-06T18:38:36.168Z,7.15
2022-11-06T18:41:13.685Z,5.07
2022-11-06T18:43:40.526Z,5.07
2022-11-06T18:46:09.803Z,13.25
2022-11-06T18:48:36.806Z,5.75
2022-11-06T18:51:11.378Z,7.25
2022-11-06T18:53:38.625Z,4.88
2022-11-06T18:56:11.723Z,5.50
2022-11-06T18:58:38.846Z,7.30
2022-11-06T19:01:07.002Z,16.45
2022-11-06T19:03:34.371Z,14.55
2022-11-06T19:06:00.815Z,5.60
2022-11-06T19:08:27.145Z,9.67
2022-11-06T19:10:53.494Z,7.65
2022-11-06T19:13:19.965Z,7.43
2022-11-06T19:15:46.478Z,6.97
2022-11-06T19:18:13.337Z,12.93
2022-11-06T19:20:41.363Z,8.60
2022-11-06T19:23:08.152Z,9.25
2022-11-06T19:25:34.624Z,9.95
2022-11-06T19:28:01.112Z,9.55
2022-11-06T19:30:27.482Z,6.93
2022-11-06T19:32:53.828Z,5.80
2022-11-06T19:35:20.187Z,10.68
2022-11-06T19:37:47.049Z,9.25
2022-11-06T19:40:13.396Z,11.13
2022-11-06T19:42:39.778Z,13.57
2022-11-06T19:45:08.571Z,10.53
2022-11-06T19:47:35.255Z,10.27
2022-11-06T19:50:01.651Z,7.20
2022-11-06T19:52:42.193Z,7.45
2022-11-06T19:55:24.585Z,7.78
2022-11-06T19:57:54.285Z,5.37
2022-11-06T20:00:20.763Z,10.23
2022-11-06T20:02:50.791Z,10.18
2022-11-06T20:05:17.357Z,10.25
2022-11-06T20:07:43.744Z,8.43
2022-11-06T20:10:10.458Z,7.47
2022-11-06T20:12:36.831Z,11.75
2022-11-06T20:15:03.891Z,8.70
2022-11-06T20:17:30.231Z,8.95
2022-11-06T20:19:56.566Z,21.80
2022-11-06T20:22:25.124Z,17.03
2022-11-06T20:24:51.458Z,16.70
2022-11-06T20:27:17.830Z,15.75
2022-11-06T20:29:45.066Z,16.85
2022-11-06T20:32:17.700Z,10.55
2022-11-06T20:34:45.513Z,7.03
2022-11-06T20:37:11.863Z,8.07
2022-11-06T20:39:38.402Z,9.32
2022-11-06T20:42:06.008Z,4.63
2022-11-06T20:44:32.659Z,8.32
2022-11-06T20:46:59.191Z,11.93
2022-11-06T20:49:25.717Z,6.13
2022-11-06T20:52:12.551Z,4.95
2022-11-06T20:54:42.394Z,5.93
2022-11-06T20:57:11.867Z,7.60
2022-11-06T20:59:38.208Z,6.17
2022-11-06T21:02:04.917Z,8.70
2022-11-06T21:04:31.339Z,6.80
2022-11-06T21:06:57.742Z,7.47
2022-11-06T21:09:24.795Z,6.28
2022-11-06T21:11:51.156Z,8.57
2022-11-06T21:14:17.541Z,7.60
2022-11-06T21:16:44.021Z,10.25
2022-11-06T21:19:10.385Z,12.07
2022-11-06T21:21:37.457Z,6.30
2022-11-06T21:24:05.160Z,7.43
2022-11-06T21:26:34.220Z,6.75
2022-11-06T21:29:02.279Z,7.93
2022-11-06T21:31:30.977Z,10.10
2022-11-06T21:33:59.827Z,5.82
2022-11-06T21:36:29.118Z,10.00
2022-11-06T21:38:58.967Z,7.93
2022-11-06T21:41:27.369Z,6.40
2022-11-06T21:43:53.766Z,7.07
2022-11-06T21:46:21.218Z,7.50
2022-11-06T21:48:49.228Z,7.70
2022-11-06T21:51:23.910Z,9.02
2022-11-06T21:54:09.897Z,9.43
2022-11-06T21:56:37.968Z,8.63
2022-11-06T21:59:07.092Z,6.25
2022-11-06T22:01:34.325Z,5.43
2022-11-06T22:04:01.211Z,6.13
2022-11-06T22:06:28.818Z,6.78
2022-11-06T22:08:57.466Z,10.07
2022-11-06T22:11:27.267Z,6.95
2022-11-06T22:13:55.770Z,5.87
2022-11-06T22:16:28.338Z,4.78
2022-11-06T22:18:55.415Z,4.63
2022-11-06T22:21:27.097Z,6.63
2022-11-06T22:23:53.820Z,4.40
2022-11-06T22:26:23.842Z,7.50
2022-11-06T22:28:58.400Z,8.13
2022-11-06T22:31:25.185Z,5.50
2022-11-06T22:33:53.891Z,4.65
2022-11-06T22:36:21.236Z,5.95
2022-11-06T22:38:48.595Z,5.63
2022-11-06T22:41:18.335Z,7.13
2022-11-06T22:43:44.838Z,6.57
2022-11-06T22:46:14.607Z,5.93
2022-11-06T22:48:41.499Z,5.28
2022-11-06T22:51:11.243Z,5.97
2022-11-06T22:53:37.592Z,5.05
2022-11-06T22:56:04.199Z,5.03
2022-11-06T22:58:31.277Z,4.70
2022-11-06T23:00:58.866Z,6.43
2022-11-06T23:03:28.274Z,5.93
2022-11-06T23:05:58.027Z,7.10
2022-11-06T23:08:28.035Z,4.78
2022-11-06T23:10:55.903Z,5.95
2022-11-06T23:13:22.975Z,7.07
2022-11-06T23:15:50.257Z,3.80
2022-11-06T23:18:17.636Z,5.18
2022-11-06T23:20:44.009Z,5.47
2022-11-06T23:23:10.393Z,4.88
2022-11-06T23:25:37.856Z,6.45
2022-11-06T23:28:04.612Z,6.77
2022-11-06T23:30:31.159Z,5.38
2022-11-06T23:32:57.742Z,6.30
2022-11-06T23:35:27.000Z,5.20
2022-11-06T23:37:58.510Z,5.75
2022-11-06T23:40:24.853Z,5.07
2022-11-06T23:42:54.507Z,4.93
2022-11-06T23:45:39.198Z,5.07
2022-11-06T23:48:12.177Z,5.72
2022-11-06T23:50:38.641Z,4.60
2022-11-06T23:53:05.329Z,3.87
2022-11-06T23:55:32.017Z,4.65
2022-11-06T23:57:58.383Z,5.45
